createdAt,value
2024-05-09T00:04:58.750Z,11.03
2024-05-09T00:19:58.588Z,11.00
2024-05-09T00:34:58.340Z,10.96
2024-05-09T00:49:58.329Z,10.92
2024-05-09T01:04:57.996Z,10.92
2024-05-09T01:19:57.730Z,10.93
2024-05-09T01:34:57.604Z,10.93
2024-05-09T01:49:57.377Z,10.84
2024-05-09T02:04:57.235Z,10.87
2024-05-09T02:19:57.170Z,10.84
2024-05-09T02:34:56.804Z,10.81
2024-05-09T02:49:56.577Z,10.74
2024-05-09T03:04:56.534Z,10.68
2024-05-09T03:19:56.202Z,10.67
2024-05-09T03:34:56.236Z,10.64
2024-05-09T03:49:55.832Z,10.62
2024-05-09T04:04:55.720Z,10.59
2024-05-09T04:19:55.555Z,10.57
2024-05-09T04:34:55.306Z,10.62
2024-05-09T04:49:55.051Z,10.68
2024-05-09T05:04:55.180Z,10.87
2024-05-09T05:19:54.919Z,11.19
2024-05-09T05:34:54.508Z,11.32
2024-05-09T05:49:54.353Z,11.47
2024-05-09T06:04:54.202Z,11.80
2024-05-09T06:19:54.133Z,12.02
2024-05-09T06:34:53.945Z,11.96
2024-05-09T06:49:53.627Z,12.19
2024-05-09T07:04:53.542Z,12.70
2024-05-09T07:19:53.221Z,12.96
2024-05-09T07:34:52.966Z,13.18
2024-05-09T07:51:32.845Z,13.63
2024-05-09T08:04:53.730Z,13.82
2024-05-09T08:19:52.492Z,14.21
2024-05-09T08:34:52.307Z,14.24
2024-05-09T08:49:52.081Z,14.87
2024-05-09T09:04:52.098Z,15.76
2024-05-09T09:20:09.015Z,16.82
2024-05-09T09:34:52.541Z,16.92
2024-05-09T09:49:51.352Z,17.12
2024-05-09T10:04:51.319Z,17.12
2024-05-09T10:19:51.236Z,17.47
2024-05-09T10:34:50.730Z,17.61
2024-05-09T10:49:50.622Z,17.88
2024-05-09T11:04:50.441Z,16.28
2024-05-09T11:19:50.166Z,15.66
2024-05-09T11:34:49.954Z,15.52
2024-05-09T11:49:50.147Z,15.65
2024-05-09T12:04:49.680Z,16.05
2024-05-09T12:19:49.484Z,16.82
2024-05-09T12:34:49.178Z,17.76
2024-05-09T12:49:49.069Z,18.39
